sensor_id;sensor_type;location;lat;lon;timestamp;P1;durP1;ratioP1;P2;durP2;ratioP2
15381;SDS011;7789;51.364;12.358;2023-07-02T00:02:50;4.70;;;1.38;;
15381;SDS011;7789;51.364;12.358;2023-07-02T00:08:12;1.77;;;1.20;;
15381;SDS011;7789;51.364;12.358;2023-07-02T00:13:19;2.03;;;1.02;;
15381;SDS011;7789;51.364;12.358;2023-07-02T00:18:39;1.38;;;1.23;;
15381;SDS011;7789;51.364;12.358;2023-07-02T00:24:00;1.10;;;1.00;;
15381;SDS011;7789;51.364;12.358;2023-07-02T00:29:06;3.03;;;1.40;;
15381;SDS011;7789;51.364;12.358;2023-07-02T00:34:22;3.40;;;1.10;;
15381;SDS011;7789;51.364;12.358;2023-07-02T00:39:29;1.23;;;0.98;;
15381;SDS011;7789;51.364;12.358;2023-07-02T00:44:38;1.50;;;0.93;;
15381;SDS011;7789;51.364;12.358;2023-07-02T00:49:58;1.23;;;1.13;;
15381;SDS011;7789;51.364;12.358;2023-07-02T00:55:05;1.63;;;1.30;;
15381;SDS011;7789;51.364;12.358;2023-07-02T01:00:12;2.15;;;1.45;;
15381;SDS011;7789;51.364;12.358;2023-07-02T01:05:21;2.42;;;1.20;;
15381;SDS011;7789;51.364;12.358;2023-07-02T01:10:32;1.30;;;1.05;;
15381;SDS011;7789;51.364;12.358;2023-07-02T01:15:47;2.15;;;1.30;;
15381;SDS011;7789;51.364;12.358;2023-07-02T01:20:55;2.08;;;1.40;;
15381;SDS011;7789;51.364;12.358;2023-07-02T01:26:08;1.38;;;1.20;;
15381;SDS011;7789;51.364;12.358;2023-07-02T01:31:16;1.67;;;1.30;;
15381;SDS011;7789;51.364;12.358;2023-07-02T01:36:29;4.00;;;1.50;;
15381;SDS011;7789;51.364;12.358;2023-07-02T01:41:37;1.73;;;1.15;;
15381;SDS011;7789;51.364;12.358;2023-07-02T01:46:49;1.73;;;1.15;;
15381;SDS011;7789;51.364;12.358;2023-07-02T01:51:59;1.30;;;1.20;;
15381;SDS011;7789;51.364;12.358;2023-07-02T01:57:06;2.45;;;1.27;;
15381;SDS011;7789;51.364;12.358;2023-07-02T02:02:27;3.33;;;1.17;;
15381;SDS011;7789;51.364;12.358;2023-07-02T02:07:40;1.75;;;1.20;;
15381;SDS011;7789;51.364;12.358;2023-07-02T02:12:49;2.10;;;1.20;;
15381;SDS011;7789;51.364;12.358;2023-07-02T02:17:59;3.05;;;1.33;;
15381;SDS011;7789;51.364;12.358;2023-07-02T02:23:09;2.28;;;1.20;;
15381;SDS011;7789;51.364;12.358;2023-07-02T02:28:17;1.30;;;1.20;;
15381;SDS011;7789;51.364;12.358;2023-07-02T02:33:23;2.42;;;1.55;;
15381;SDS011;7789;51.364;12.358;2023-07-02T02:38:37;2.63;;;1.25;;
15381;SDS011;7789;51.364;12.358;2023-07-02T02:43:48;2.72;;;1.50;;
15381;SDS011;7789;51.364;12.358;2023-07-02T02:48:55;3.83;;;1.30;;
15381;SDS011;7789;51.364;12.358;2023-07-02T02:54:07;2.45;;;1.25;;
15381;SDS011;7789;51.364;12.358;2023-07-02T02:59:12;2.72;;;1.20;;
15381;SDS011;7789;51.364;12.358;2023-07-02T03:04:19;1.80;;;1.55;;
15381;SDS011;7789;51.364;12.358;2023-07-02T03:09:55;1.85;;;1.42;;
15381;SDS011;7789;51.364;12.358;2023-07-02T03:15:08;1.45;;;1.30;;
15381;SDS011;7789;51.364;12.358;2023-07-02T03:20:15;1.58;;;1.42;;
15381;SDS011;7789;51.364;12.358;2023-07-02T03:25:26;3.38;;;1.30;;
15381;SDS011;7789;51.364;12.358;2023-07-02T03:30:32;1.40;;;1.30;;
15381;SDS011;7789;51.364;12.358;2023-07-02T03:35:40;3.30;;;1.50;;
15381;SDS011;7789;51.364;12.358;2023-07-02T03:41:03;1.67;;;1.20;;
15381;SDS011;7789;51.364;12.358;2023-07-02T03:46:15;2.78;;;1.38;;
15381;SDS011;7789;51.364;12.358;2023-07-02T03:51:22;6.90;;;1.67;;
15381;SDS011;7789;51.364;12.358;2023-07-02T03:56:41;1.95;;;1.25;;
15381;SDS011;7789;51.364;12.358;2023-07-02T04:01:52;3.55;;;1.23;;
15381;SDS011;7789;51.364;12.358;2023-07-02T04:06:58;2.05;;;1.38;;
15381;SDS011;7789;51.364;12.358;2023-07-02T04:12:14;2.10;;;1.30;;
15381;SDS011;7789;51.364;12.358;2023-07-02T04:17:24;1.50;;;1.35;;
15381;SDS011;7789;51.364;12.358;2023-07-02T04:22:30;1.17;;;1.10;;
15381;SDS011;7789;51.364;12.358;2023-07-02T04:27:41;1.65;;;1.30;;
15381;SDS011;7789;51.364;12.358;2023-07-02T04:32:55;2.45;;;1.45;;
15381;SDS011;7789;51.364;12.358;2023-07-02T04:38:05;2.10;;;1.15;;
15381;SDS011;7789;51.364;12.358;2023-07-02T04:43:31;2.63;;;1.20;;
15381;SDS011;7789;51.364;12.358;2023-07-02T04:48:37;1.65;;;1.20;;
15381;SDS011;7789;51.364;12.358;2023-07-02T04:53:46;2.90;;;1.48;;
15381;SDS011;7789;51.364;12.358;2023-07-02T04:58:54;2.90;;;1.55;;
15381;SDS011;7789;51.364;12.358;2023-07-02T05:04:01;2.55;;;1.40;;
15381;SDS011;7789;51.364;12.358;2023-07-02T05:09:07;1.50;;;1.40;;
15381;SDS011;7789;51.364;12.358;2023-07-02T05:14:25;3.20;;;1.90;;
15381;SDS011;7789;51.364;12.358;2023-07-02T05:19:37;2.95;;;1.80;;
15381;SDS011;7789;51.364;12.358;2023-07-02T05:24:44;2.00;;;1.77;;
15381;SDS011;7789;51.364;12.358;2023-07-02T05:29:59;2.03;;;1.83;;
15381;SDS011;7789;51.364;12.358;2023-07-02T05:35:09;2.17;;;1.83;;
15381;SDS011;7789;51.364;12.358;2023-07-02T05:40:20;2.08;;;1.88;;
15381;SDS011;7789;51.364;12.358;2023-07-02T05:45:32;3.45;;;1.80;;
15381;SDS011;7789;51.364;12.358;2023-07-02T05:50:59;2.03;;;1.92;;
15381;SDS011;7789;51.364;12.358;2023-07-02T05:56:07;2.60;;;1.80;;
15381;SDS011;7789;51.364;12.358;2023-07-02T06:01:20;2.60;;;1.95;;
15381;SDS011;7789;51.364;12.358;2023-07-02T06:06:50;1.88;;;1.75;;
15381;SDS011;7789;51.364;12.358;2023-07-02T06:11:58;2.10;;;1.90;;
15381;SDS011;7789;51.364;12.358;2023-07-02T06:17:06;2.40;;;1.90;;
15381;SDS011;7789;51.364;12.358;2023-07-02T06:22:12;3.83;;;2.00;;
15381;SDS011;7789;51.364;12.358;2023-07-02T06:27:22;1.40;;;1.30;;
15381;SDS011;7789;51.364;12.358;2023-07-02T06:32:32;3.80;;;1.38;;
15381;SDS011;7789;51.364;12.358;2023-07-02T06:37:39;3.47;;;1.40;;
15381;SDS011;7789;51.364;12.358;2023-07-02T06:42:54;3.30;;;1.30;;
15381;SDS011;7789;51.364;12.358;2023-07-02T06:48:03;2.15;;;1.30;;
15381;SDS011;7789;51.364;12.358;2023-07-02T06:53:20;1.40;;;1.20;;
15381;SDS011;7789;51.364;12.358;2023-07-02T06:58:24;1.17;;;1.10;;
15381;SDS011;7789;51.364;12.358;2023-07-02T07:03:37;2.25;;;1.20;;
15381;SDS011;7789;51.364;12.358;2023-07-02T07:08:47;1.40;;;1.30;;
15381;SDS011;7789;51.364;12.358;2023-07-02T07:14:00;1.50;;;0.90;;
15381;SDS011;7789;51.364;12.358;2023-07-02T07:19:06;2.00;;;1.15;;
15381;SDS011;7789;51.364;12.358;2023-07-02T07:24:13;1.60;;;1.30;;
15381;SDS011;7789;51.364;12.358;2023-07-02T07:29:17;2.85;;;1.45;;
15381;SDS011;7789;51.364;12.358;2023-07-02T07:34:27;1.40;;;1.30;;
15381;SDS011;7789;51.364;12.358;2023-07-02T07:39:44;2.78;;;1.80;;
15381;SDS011;7789;51.364;12.358;2023-07-02T07:44:55;3.03;;;1.13;;
15381;SDS011;7789;51.364;12.358;2023-07-02T07:50:01;2.33;;;1.00;;
15381;SDS011;7789;51.364;12.358;2023-07-02T07:55:12;1.63;;;1.02;;
15381;SDS011;7789;51.364;12.358;2023-07-02T08:00:19;7.93;;;1.13;;
15381;SDS011;7789;51.364;12.358;2023-07-02T08:05:27;1.25;;;1.15;;
15381;SDS011;7789;51.364;12.358;2023-07-02T08:10:31;5.82;;;1.17;;
15381;SDS011;7789;51.364;12.358;2023-07-02T08:15:37;2.13;;;1.10;;
15381;SDS011;7789;51.364;12.358;2023-07-02T08:20:53;1.20;;;1.10;;
15381;SDS011;7789;51.364;12.358;2023-07-02T08:26:06;2.13;;;1.15;;
15381;SDS011;7789;51.364;12.358;2023-07-02T08:31:14;1.30;;;1.10;;
15381;SDS011;7789;51.364;12.358;2023-07-02T08:36:31;1.08;;;0.98;;
15381;SDS011;7789;51.364;12.358;2023-07-02T08:41:51;1.83;;;1.20;;
15381;SDS011;7789;51.364;12.358;2023-07-02T08:47:22;1.85;;;1.08;;
15381;SDS011;7789;51.364;12.358;2023-07-02T08:52:30;1.35;;;1.02;;
15381;SDS011;7789;51.364;12.358;2023-07-02T08:57:47;1.30;;;0.82;;
15381;SDS011;7789;51.364;12.358;2023-07-02T09:03:10;2.20;;;1.05;;
15381;SDS011;7789;51.364;12.358;2023-07-02T09:08:25;2.50;;;1.60;;
15381;SDS011;7789;51.364;12.358;2023-07-02T09:13:45;1.65;;;1.40;;
15381;SDS011;7789;51.364;12.358;2023-07-02T09:19:00;1.40;;;1.30;;
15381;SDS011;7789;51.364;12.358;2023-07-02T09:24:19;1.83;;;1.30;;
15381;SDS011;7789;51.364;12.358;2023-07-02T09:29:37;1.73;;;1.30;;
15381;SDS011;7789;51.364;12.358;2023-07-02T09:34:54;2.15;;;1.45;;
15381;SDS011;7789;51.364;12.358;2023-07-02T09:40:06;3.15;;;1.90;;
15381;SDS011;7789;51.364;12.358;2023-07-02T09:45:23;2.47;;;1.65;;
15381;SDS011;7789;51.364;12.358;2023-07-02T09:50:30;1.88;;;1.52;;
15381;SDS011;7789;51.364;12.358;2023-07-02T09:55:37;2.22;;;1.67;;
15381;SDS011;7789;51.364;12.358;2023-07-02T10:00:50;2.97;;;2.30;;
15381;SDS011;7789;51.364;12.358;2023-07-02T10:06:05;2.60;;;2.40;;
15381;SDS011;7789;51.364;12.358;2023-07-02T10:11:13;3.00;;;2.47;;
15381;SDS011;7789;51.364;12.358;2023-07-02T10:16:26;5.10;;;2.08;;
15381;SDS011;7789;51.364;12.358;2023-07-02T10:22:00;4.82;;;2.40;;
15381;SDS011;7789;51.364;12.358;2023-07-02T10:27:10;4.65;;;2.80;;
15381;SDS011;7789;51.364;12.358;2023-07-02T10:32:27;4.25;;;2.70;;
15381;SDS011;7789;51.364;12.358;2023-07-02T10:37:37;3.72;;;2.53;;
15381;SDS011;7789;51.364;12.358;2023-07-02T10:43:11;4.25;;;2.67;;
15381;SDS011;7789;51.364;12.358;2023-07-02T10:48:20;5.15;;;3.05;;
15381;SDS011;7789;51.364;12.358;2023-07-02T10:53:43;4.38;;;2.90;;
15381;SDS011;7789;51.364;12.358;2023-07-02T10:59:04;6.95;;;3.30;;
15381;SDS011;7789;51.364;12.358;2023-07-02T11:04:24;5.00;;;3.20;;
15381;SDS011;7789;51.364;12.358;2023-07-02T11:09:32;5.38;;;3.95;;
15381;SDS011;7789;51.364;12.358;2023-07-02T11:14:43;5.53;;;3.40;;
15381;SDS011;7789;51.364;12.358;2023-07-02T11:19:52;4.68;;;4.10;;
15381;SDS011;7789;51.364;12.358;2023-07-02T11:25:12;5.45;;;4.32;;
15381;SDS011;7789;51.364;12.358;2023-07-02T11:30:29;6.55;;;4.53;;
15381;SDS011;7789;51.364;12.358;2023-07-02T11:35:44;7.88;;;4.40;;
15381;SDS011;7789;51.364;12.358;2023-07-02T11:41:00;5.07;;;4.20;;
15381;SDS011;7789;51.364;12.358;2023-07-02T11:46:17;5.40;;;4.53;;
15381;SDS011;7789;51.364;12.358;2023-07-02T11:51:24;5.40;;;4.45;;
15381;SDS011;7789;51.364;12.358;2023-07-02T11:56:35;7.45;;;4.70;;
15381;SDS011;7789;51.364;12.358;2023-07-02T12:01:43;6.85;;;4.00;;
15381;SDS011;7789;51.364;12.358;2023-07-02T12:06:49;8.02;;;4.50;;
15381;SDS011;7789;51.364;12.358;2023-07-02T12:11:55;6.88;;;4.50;;
15381;SDS011;7789;51.364;12.358;2023-07-02T12:22:35;4.85;;;3.97;;
15381;SDS011;7789;51.364;12.358;2023-07-02T12:27:45;6.47;;;4.38;;
15381;SDS011;7789;51.364;12.358;2023-07-02T12:32:56;8.40;;;5.00;;
15381;SDS011;7789;51.364;12.358;2023-07-02T12:38:03;6.63;;;4.50;;
15381;SDS011;7789;51.364;12.358;2023-07-02T12:43:10;5.88;;;4.47;;
15381;SDS011;7789;51.364;12.358;2023-07-02T12:48:26;6.43;;;4.80;;
15381;SDS011;7789;51.364;12.358;2023-07-02T12:53:43;6.45;;;4.57;;
15381;SDS011;7789;51.364;12.358;2023-07-02T12:58:48;9.02;;;4.80;;
15381;SDS011;7789;51.364;12.358;2023-07-02T13:03:57;11.98;;;5.15;;
15381;SDS011;7789;51.364;12.358;2023-07-02T13:09:15;9.93;;;4.90;;
15381;SDS011;7789;51.364;12.358;2023-07-02T13:14:40;6.75;;;4.70;;
15381;SDS011;7789;51.364;12.358;2023-07-02T13:20:00;7.55;;;4.85;;
15381;SDS011;7789;51.364;12.358;2023-07-02T13:25:07;9.48;;;5.75;;
15381;SDS011;7789;51.364;12.358;2023-07-02T13:30:20;8.68;;;5.53;;
15381;SDS011;7789;51.364;12.358;2023-07-02T13:41:13;7.60;;;5.55;;
15381;SDS011;7789;51.364;12.358;2023-07-02T13:46:20;9.60;;;5.82;;
15381;SDS011;7789;51.364;12.358;2023-07-02T13:51:36;7.50;;;5.57;;
15381;SDS011;7789;51.364;12.358;2023-07-02T13:56:42;8.25;;;5.85;;
15381;SDS011;7789;51.364;12.358;2023-07-02T14:01:52;9.27;;;5.18;;
15381;SDS011;7789;51.364;12.358;2023-07-02T14:06:59;8.35;;;5.93;;
15381;SDS011;7789;51.364;12.358;2023-07-02T14:12:12;7.80;;;5.55;;
15381;SDS011;7789;51.364;12.358;2023-07-02T14:17:48;9.57;;;6.13;;
15381;SDS011;7789;51.364;12.358;2023-07-02T14:22:58;11.45;;;5.97;;
15381;SDS011;7789;51.364;12.358;2023-07-02T14:28:08;10.10;;;6.70;;
15381;SDS011;7789;51.364;12.358;2023-07-02T14:33:17;9.40;;;6.43;;
15381;SDS011;7789;51.364;12.358;2023-07-02T14:38:23;8.40;;;6.80;;
15381;SDS011;7789;51.364;12.358;2023-07-02T14:43:32;10.48;;;6.38;;
15381;SDS011;7789;51.364;12.358;2023-07-02T14:48:38;9.52;;;6.10;;
15381;SDS011;7789;51.364;12.358;2023-07-02T14:53:44;8.98;;;6.20;;
15381;SDS011;7789;51.364;12.358;2023-07-02T14:58:54;8.90;;;6.30;;
15381;SDS011;7789;51.364;12.358;2023-07-02T15:04:16;9.15;;;6.38;;
15381;SDS011;7789;51.364;12.358;2023-07-02T15:09:31;11.15;;;7.03;;
15381;SDS011;7789;51.364;12.358;2023-07-02T15:14:47;9.90;;;6.70;;
15381;SDS011;7789;51.364;12.358;2023-07-02T15:25:31;13.65;;;6.80;;
15381;SDS011;7789;51.364;12.358;2023-07-02T15:30:37;12.10;;;7.50;;
15381;SDS011;7789;51.364;12.358;2023-07-02T15:35:58;9.45;;;6.47;;
15381;SDS011;7789;51.364;12.358;2023-07-02T15:41:11;10.30;;;7.30;;
15381;SDS011;7789;51.364;12.358;2023-07-02T15:46:20;10.77;;;6.63;;
15381;SDS011;7789;51.364;12.358;2023-07-02T15:51:33;12.27;;;7.53;;
15381;SDS011;7789;51.364;12.358;2023-07-02T15:56:45;9.30;;;6.68;;
15381;SDS011;7789;51.364;12.358;2023-07-02T16:02:11;10.27;;;6.55;;
15381;SDS011;7789;51.364;12.358;2023-07-02T16:07:38;9.68;;;6.43;;
15381;SDS011;7789;51.364;12.358;2023-07-02T16:12:43;12.90;;;7.13;;
15381;SDS011;7789;51.364;12.358;2023-07-02T16:17:47;13.32;;;9.48;;
15381;SDS011;7789;51.364;12.358;2023-07-02T16:28:33;21.40;;;15.52;;
15381;SDS011;7789;51.364;12.358;2023-07-02T16:33:46;20.33;;;14.73;;
15381;SDS011;7789;51.364;12.358;2023-07-02T16:38:54;42.38;;;36.00;;
15381;SDS011;7789;51.364;12.358;2023-07-02T16:44:03;12.88;;;9.13;;
15381;SDS011;7789;51.364;12.358;2023-07-02T16:49:08;9.60;;;6.85;;
15381;SDS011;7789;51.364;12.358;2023-07-02T16:54:15;11.23;;;7.40;;
15381;SDS011;7789;51.364;12.358;2023-07-02T16:59:31;10.30;;;6.95;;
15381;SDS011;7789;51.364;12.358;2023-07-02T17:04:42;10.85;;;7.18;;
15381;SDS011;7789;51.364;12.358;2023-07-02T17:09:59;12.95;;;10.30;;
15381;SDS011;7789;51.364;12.358;2023-07-02T17:15:16;11.35;;;7.80;;
15381;SDS011;7789;51.364;12.358;2023-07-02T17:20:21;14.55;;;7.82;;
15381;SDS011;7789;51.364;12.358;2023-07-02T17:30:54;10.38;;;7.68;;
15381;SDS011;7789;51.364;12.358;2023-07-02T17:35:59;11.30;;;7.88;;
15381;SDS011;7789;51.364;12.358;2023-07-02T17:41:07;11.57;;;7.97;;
15381;SDS011;7789;51.364;12.358;2023-07-02T17:46:30;13.05;;;7.57;;
15381;SDS011;7789;51.364;12.358;2023-07-02T17:51:35;12.52;;;7.90;;
15381;SDS011;7789;51.364;12.358;2023-07-02T17:56:52;10.23;;;7.72;;
15381;SDS011;7789;51.364;12.358;2023-07-02T18:02:04;11.15;;;7.20;;
15381;SDS011;7789;51.364;12.358;2023-07-02T18:07:17;16.88;;;12.55;;
15381;SDS011;7789;51.364;12.358;2023-07-02T18:12:41;9.82;;;7.65;;
15381;SDS011;7789;51.364;12.358;2023-07-02T18:17:48;16.85;;;8.18;;
15381;SDS011;7789;51.364;12.358;2023-07-02T18:22:56;10.52;;;7.13;;
15381;SDS011;7789;51.364;12.358;2023-07-02T18:28:19;13.57;;;8.43;;
15381;SDS011;7789;51.364;12.358;2023-07-02T18:33:28;11.82;;;8.10;;
15381;SDS011;7789;51.364;12.358;2023-07-02T18:38:34;14.05;;;8.60;;
15381;SDS011;7789;51.364;12.358;2023-07-02T18:43:41;11.30;;;8.18;;
15381;SDS011;7789;51.364;12.358;2023-07-02T18:48:47;13.85;;;8.30;;
15381;SDS011;7789;51.364;12.358;2023-07-02T18:53:53;13.73;;;8.85;;
15381;SDS011;7789;51.364;12.358;2023-07-02T18:58:59;12.80;;;8.68;;
15381;SDS011;7789;51.364;12.358;2023-07-02T19:04:04;10.40;;;7.32;;
15381;SDS011;7789;51.364;12.358;2023-07-02T19:09:10;12.63;;;8.00;;
15381;SDS011;7789;51.364;12.358;2023-07-02T19:14:16;13.63;;;8.50;;
15381;SDS011;7789;51.364;12.358;2023-07-02T19:19:23;11.85;;;8.10;;
15381;SDS011;7789;51.364;12.358;2023-07-02T19:24:28;13.18;;;9.38;;
15381;SDS011;7789;51.364;12.358;2023-07-02T19:29:35;13.07;;;8.65;;
15381;SDS011;7789;51.364;12.358;2023-07-02T19:34:45;12.80;;;7.72;;
15381;SDS011;7789;51.364;12.358;2023-07-02T19:39:56;14.15;;;7.93;;
15381;SDS011;7789;51.364;12.358;2023-07-02T19:45:12;15.02;;;8.63;;
15381;SDS011;7789;51.364;12.358;2023-07-02T19:50:18;12.02;;;7.88;;
15381;SDS011;7789;51.364;12.358;2023-07-02T19:55:27;13.85;;;8.30;;
15381;SDS011;7789;51.364;12.358;2023-07-02T20:00:38;14.70;;;8.82;;
15381;SDS011;7789;51.364;12.358;2023-07-02T20:05:44;14.63;;;8.52;;
15381;SDS011;7789;51.364;12.358;2023-07-02T20:10:52;11.27;;;7.93;;
15381;SDS011;7789;51.364;12.358;2023-07-02T20:16:01;16.50;;;8.10;;
15381;SDS011;7789;51.364;12.358;2023-07-02T20:21:08;12.63;;;8.27;;
15381;SDS011;7789;51.364;12.358;2023-07-02T20:26:16;13.02;;;8.35;;
15381;SDS011;7789;51.364;12.358;2023-07-02T20:31:33;12.82;;;7.68;;
15381;SDS011;7789;51.364;12.358;2023-07-02T20:36:40;18.40;;;9.23;;
15381;SDS011;7789;51.364;12.358;2023-07-02T20:42:06;13.88;;;8.27;;
15381;SDS011;7789;51.364;12.358;2023-07-02T20:53:04;16.25;;;8.27;;
15381;SDS011;7789;51.364;12.358;2023-07-02T20:58:15;13.50;;;8.65;;
15381;SDS011;7789;51.364;12.358;2023-07-02T21:03:36;16.85;;;9.32;;
15381;SDS011;7789;51.364;12.358;2023-07-02T21:08:54;14.85;;;9.00;;
15381;SDS011;7789;51.364;12.358;2023-07-02T21:14:05;15.18;;;8.38;;
15381;SDS011;7789;51.364;12.358;2023-07-02T21:19:20;13.52;;;7.95;;
15381;SDS011;7789;51.364;12.358;2023-07-02T21:24:47;16.08;;;9.27;;
15381;SDS011;7789;51.364;12.358;2023-07-02T21:30:04;16.08;;;9.45;;
15381;SDS011;7789;51.364;12.358;2023-07-02T21:35:15;13.32;;;7.97;;
15381;SDS011;7789;51.364;12.358;2023-07-02T21:40:27;16.80;;;8.48;;
15381;SDS011;7789;51.364;12.358;2023-07-02T21:45:38;12.55;;;8.68;;
15381;SDS011;7789;51.364;12.358;2023-07-02T21:50:50;16.08;;;9.15;;
15381;SDS011;7789;51.364;12.358;2023-07-02T21:55:56;13.77;;;8.73;;
15381;SDS011;7789;51.364;12.358;2023-07-02T22:01:04;18.50;;;9.85;;
15381;SDS011;7789;51.364;12.358;2023-07-02T22:06:14;15.18;;;9.55;;
15381;SDS011;7789;51.364;12.358;2023-07-02T22:11:23;15.32;;;9.50;;
15381;SDS011;7789;51.364;12.358;2023-07-02T22:16:34;12.02;;;8.60;;
15381;SDS011;7789;51.364;12.358;2023-07-02T22:22:11;14.88;;;9.52;;
15381;SDS011;7789;51.364;12.358;2023-07-02T22:27:24;15.25;;;9.38;;
15381;SDS011;7789;51.364;12.358;2023-07-02T22:32:59;13.32;;;8.02;;
15381;SDS011;7789;51.364;12.358;2023-07-02T22:38:19;12.57;;;9.05;;
15381;SDS011;7789;51.364;12.358;2023-07-02T22:43:35;15.13;;;8.98;;
15381;SDS011;7789;51.364;12.358;2023-07-02T22:48:48;14.13;;;8.68;;
15381;SDS011;7789;51.364;12.358;2023-07-02T22:54:08;15.20;;;9.43;;
15381;SDS011;7789;51.364;12.358;2023-07-02T23:04:43;13.05;;;8.63;;
15381;SDS011;7789;51.364;12.358;2023-07-02T23:09:54;17.15;;;9.13;;
15381;SDS011;7789;51.364;12.358;2023-07-02T23:15:07;14.00;;;8.88;;
15381;SDS011;7789;51.364;12.358;2023-07-02T23:20:18;14.20;;;8.95;;
15381;SDS011;7789;51.364;12.358;2023-07-02T23:25:41;14.35;;;9.32;;
15381;SDS011;7789;51.364;12.358;2023-07-02T23:31:06;13.88;;;9.60;;
15381;SDS011;7789;51.364;12.358;2023-07-02T23:36:33;14.50;;;9.07;;
15381;SDS011;7789;51.364;12.358;2023-07-02T23:47:21;16.83;;;9.73;;
15381;SDS011;7789;51.364;12.358;2023-07-02T23:52:27;14.60;;;9.38;;
15381;SDS011;7789;51.364;12.358;2023-07-02T23:58:10;19.48;;;10.18;;
